sensor_id;sensor_type;location;lat;lon;timestamp;P1;durP1;ratioP1;P2;durP2;ratioP2
64938;SDS011;51453;47.738;7.420;2023-05-28T00:02:25;8.48;;;3.22;;
64938;SDS011;51453;47.738;7.420;2023-05-28T00:04:50;7.97;;;3.40;;
64938;SDS011;51453;47.738;7.420;2023-05-28T00:07:16;9.43;;;4.18;;
64938;SDS011;51453;47.738;7.420;2023-05-28T00:09:41;8.45;;;3.38;;
64938;SDS011;51453;47.738;7.420;2023-05-28T00:12:07;8.38;;;3.78;;
64938;SDS011;51453;47.738;7.420;2023-05-28T00:14:33;9.05;;;3.53;;
64938;SDS011;51453;47.738;7.420;2023-05-28T00:16:59;9.40;;;3.75;;
64938;SDS011;51453;47.738;7.420;2023-05-28T00:19:25;8.10;;;3.97;;
64938;SDS011;51453;47.738;7.420;2023-05-28T00:21:51;8.93;;;4.00;;
64938;SDS011;51453;47.738;7.420;2023-05-28T00:24:16;9.00;;;4.10;;
64938;SDS011;51453;47.738;7.420;2023-05-28T00:26:42;10.30;;;3.70;;
64938;SDS011;51453;47.738;7.420;2023-05-28T00:29:08;8.20;;;4.00;;
64938;SDS011;51453;47.738;7.420;2023-05-28T00:31:33;7.80;;;3.97;;
64938;SDS011;51453;47.738;7.420;2023-05-28T00:33:59;6.55;;;3.47;;
64938;SDS011;51453;47.738;7.420;2023-05-28T00:36:26;6.88;;;4.00;;
64938;SDS011;51453;47.738;7.420;2023-05-28T00:38:52;7.97;;;4.32;;
64938;SDS011;51453;47.738;7.420;2023-05-28T00:41:21;8.50;;;4.20;;
64938;SDS011;51453;47.738;7.420;2023-05-28T00:43:47;7.78;;;4.15;;
64938;SDS011;51453;47.738;7.420;2023-05-28T00:46:14;10.27;;;4.20;;
64938;SDS011;51453;47.738;7.420;2023-05-28T00:48:46;7.22;;;4.13;;
64938;SDS011;51453;47.738;7.420;2023-05-28T00:51:12;10.60;;;4.40;;
64938;SDS011;51453;47.738;7.420;2023-05-28T00:53:39;10.40;;;4.05;;
64938;SDS011;51453;47.738;7.420;2023-05-28T00:56:06;9.63;;;4.10;;
64938;SDS011;51453;47.738;7.420;2023-05-28T00:58:35;11.00;;;4.22;;
64938;SDS011;51453;47.738;7.420;2023-05-28T01:01:04;8.60;;;4.38;;
64938;SDS011;51453;47.738;7.420;2023-05-28T01:03:35;9.55;;;4.22;;
64938;SDS011;51453;47.738;7.420;2023-05-28T01:06:07;7.70;;;4.53;;
64938;SDS011;51453;47.738;7.420;2023-05-28T01:08:39;8.15;;;4.28;;
64938;SDS011;51453;47.738;7.420;2023-05-28T01:11:10;8.65;;;4.45;;
64938;SDS011;51453;47.738;7.420;2023-05-28T01:13:38;8.32;;;4.40;;
64938;SDS011;51453;47.738;7.420;2023-05-28T01:16:05;11.52;;;4.70;;
64938;SDS011;51453;47.738;7.420;2023-05-28T01:18:31;11.02;;;4.78;;
64938;SDS011;51453;47.738;7.420;2023-05-28T01:21:00;8.63;;;4.47;;
64938;SDS011;51453;47.738;7.420;2023-05-28T01:23:28;10.77;;;4.20;;
64938;SDS011;51453;47.738;7.420;2023-05-28T01:25:54;9.25;;;4.70;;
64938;SDS011;51453;47.738;7.420;2023-05-28T01:28:20;8.68;;;4.65;;
64938;SDS011;51453;47.738;7.420;2023-05-28T01:30:49;11.63;;;5.03;;
64938;SDS011;51453;47.738;7.420;2023-05-28T01:33:16;11.05;;;4.85;;
64938;SDS011;51453;47.738;7.420;2023-05-28T01:35:43;10.90;;;5.10;;
64938;SDS011;51453;47.738;7.420;2023-05-28T01:38:10;9.63;;;5.07;;
64938;SDS011;51453;47.738;7.420;2023-05-28T01:40:39;9.35;;;4.63;;
64938;SDS011;51453;47.738;7.420;2023-05-28T01:43:08;9.33;;;4.50;;
64938;SDS011;51453;47.738;7.420;2023-05-28T01:45:34;9.90;;;4.65;;
64938;SDS011;51453;47.738;7.420;2023-05-28T01:47:59;8.88;;;4.95;;
64938;SDS011;51453;47.738;7.420;2023-05-28T01:50:25;11.50;;;4.88;;
64938;SDS011;51453;47.738;7.420;2023-05-28T01:52:51;10.27;;;4.88;;
64938;SDS011;51453;47.738;7.420;2023-05-28T01:55:17;9.82;;;4.90;;
64938;SDS011;51453;47.738;7.420;2023-05-28T01:57:42;10.85;;;4.57;;
64938;SDS011;51453;47.738;7.420;2023-05-28T02:00:08;10.00;;;4.97;;
64938;SDS011;51453;47.738;7.420;2023-05-28T02:02:35;10.15;;;4.75;;
64938;SDS011;51453;47.738;7.420;2023-05-28T02:05:01;10.75;;;4.50;;
64938;SDS011;51453;47.738;7.420;2023-05-28T02:07:27;14.07;;;4.90;;
64938;SDS011;51453;47.738;7.420;2023-05-28T02:09:52;9.57;;;4.72;;
64938;SDS011;51453;47.738;7.420;2023-05-28T02:12:18;9.35;;;4.63;;
64938;SDS011;51453;47.738;7.420;2023-05-28T02:14:44;11.20;;;4.90;;
64938;SDS011;51453;47.738;7.420;2023-05-28T02:17:10;8.93;;;4.57;;
64938;SDS011;51453;47.738;7.420;2023-05-28T02:19:36;12.10;;;4.40;;
64938;SDS011;51453;47.738;7.420;2023-05-28T02:22:02;7.93;;;4.47;;
64938;SDS011;51453;47.738;7.420;2023-05-28T02:24:35;9.40;;;4.68;;
64938;SDS011;51453;47.738;7.420;2023-05-28T02:27:01;9.05;;;4.25;;
64938;SDS011;51453;47.738;7.420;2023-05-28T02:29:26;9.10;;;4.10;;
64938;SDS011;51453;47.738;7.420;2023-05-28T02:31:52;10.35;;;4.75;;
64938;SDS011;51453;47.738;7.420;2023-05-28T02:34:17;10.05;;;4.65;;
64938;SDS011;51453;47.738;7.420;2023-05-28T02:36:43;10.27;;;4.20;;
64938;SDS011;51453;47.738;7.420;2023-05-28T02:39:09;6.97;;;4.00;;
64938;SDS011;51453;47.738;7.420;2023-05-28T02:41:35;17.30;;;4.50;;
64938;SDS011;51453;47.738;7.420;2023-05-28T02:44:01;8.10;;;4.10;;
64938;SDS011;51453;47.738;7.420;2023-05-28T02:46:27;12.10;;;4.68;;
64938;SDS011;51453;47.738;7.420;2023-05-28T02:48:52;8.43;;;4.55;;
64938;SDS011;51453;47.738;7.420;2023-05-28T02:51:18;10.20;;;4.72;;
64938;SDS011;51453;47.738;7.420;2023-05-28T02:53:43;10.85;;;4.63;;
64938;SDS011;51453;47.738;7.420;2023-05-28T02:56:10;10.90;;;4.43;;
64938;SDS011;51453;47.738;7.420;2023-05-28T02:58:36;9.57;;;3.88;;
64938;SDS011;51453;47.738;7.420;2023-05-28T03:01:02;11.30;;;4.45;;
64938;SDS011;51453;47.738;7.420;2023-05-28T03:03:28;13.95;;;4.53;;
64938;SDS011;51453;47.738;7.420;2023-05-28T03:05:54;12.35;;;4.22;;
64938;SDS011;51453;47.738;7.420;2023-05-28T03:08:19;10.98;;;4.72;;
64938;SDS011;51453;47.738;7.420;2023-05-28T03:10:45;12.68;;;4.72;;
64938;SDS011;51453;47.738;7.420;2023-05-28T03:13:11;9.82;;;4.13;;
64938;SDS011;51453;47.738;7.420;2023-05-28T03:15:36;10.75;;;4.53;;
64938;SDS011;51453;47.738;7.420;2023-05-28T03:18:02;12.05;;;4.35;;
64938;SDS011;51453;47.738;7.420;2023-05-28T03:20:28;9.88;;;4.40;;
64938;SDS011;51453;47.738;7.420;2023-05-28T03:22:55;10.68;;;5.20;;
64938;SDS011;51453;47.738;7.420;2023-05-28T03:25:22;10.52;;;4.55;;
64938;SDS011;51453;47.738;7.420;2023-05-28T03:27:49;11.07;;;4.57;;
64938;SDS011;51453;47.738;7.420;2023-05-28T03:30:15;9.75;;;4.90;;
64938;SDS011;51453;47.738;7.420;2023-05-28T03:32:41;12.15;;;5.35;;
64938;SDS011;51453;47.738;7.420;2023-05-28T03:35:07;11.43;;;4.43;;
64938;SDS011;51453;47.738;7.420;2023-05-28T03:37:33;9.32;;;4.40;;
64938;SDS011;51453;47.738;7.420;2023-05-28T03:39:59;10.60;;;4.72;;
64938;SDS011;51453;47.738;7.420;2023-05-28T03:42:25;10.27;;;4.80;;
64938;SDS011;51453;47.738;7.420;2023-05-28T03:44:51;10.57;;;4.57;;
64938;SDS011;51453;47.738;7.420;2023-05-28T03:47:16;9.57;;;4.30;;
64938;SDS011;51453;47.738;7.420;2023-05-28T03:49:42;10.30;;;4.70;;
64938;SDS011;51453;47.738;7.420;2023-05-28T03:52:08;11.23;;;5.03;;
64938;SDS011;51453;47.738;7.420;2023-05-28T03:54:34;9.07;;;4.55;;
64938;SDS011;51453;47.738;7.420;2023-05-28T03:57:00;12.07;;;4.80;;
64938;SDS011;51453;47.738;7.420;2023-05-28T03:59:26;6.68;;;4.18;;
64938;SDS011;51453;47.738;7.420;2023-05-28T04:01:51;9.77;;;4.13;;
64938;SDS011;51453;47.738;7.420;2023-05-28T04:04:17;8.15;;;4.03;;
64938;SDS011;51453;47.738;7.420;2023-05-28T04:06:43;9.25;;;4.25;;
64938;SDS011;51453;47.738;7.420;2023-05-28T04:09:08;9.00;;;4.28;;
64938;SDS011;51453;47.738;7.420;2023-05-28T04:11:34;8.73;;;4.35;;
64938;SDS011;51453;47.738;7.420;2023-05-28T04:14:02;7.95;;;4.20;;
64938;SDS011;51453;47.738;7.420;2023-05-28T04:16:28;12.77;;;4.85;;
64938;SDS011;51453;47.738;7.420;2023-05-28T04:18:53;9.07;;;4.63;;
64938;SDS011;51453;47.738;7.420;2023-05-28T04:21:20;11.85;;;4.47;;
64938;SDS011;51453;47.738;7.420;2023-05-28T04:23:46;7.97;;;4.20;;
64938;SDS011;51453;47.738;7.420;2023-05-28T04:26:12;8.88;;;3.88;;
64938;SDS011;51453;47.738;7.420;2023-05-28T04:28:39;6.93;;;3.97;;
64938;SDS011;51453;47.738;7.420;2023-05-28T04:31:05;10.60;;;4.40;;
64938;SDS011;51453;47.738;7.420;2023-05-28T04:33:31;9.73;;;3.90;;
64938;SDS011;51453;47.738;7.420;2023-05-28T04:35:58;11.48;;;4.28;;
64938;SDS011;51453;47.738;7.420;2023-05-28T04:38:24;7.40;;;3.92;;
64938;SDS011;51453;47.738;7.420;2023-05-28T04:40:54;8.77;;;4.03;;
64938;SDS011;51453;47.738;7.420;2023-05-28T04:43:20;11.10;;;4.60;;
64938;SDS011;51453;47.738;7.420;2023-05-28T04:45:49;13.35;;;4.53;;
64938;SDS011;51453;47.738;7.420;2023-05-28T04:48:14;9.73;;;4.25;;
64938;SDS011;51453;47.738;7.420;2023-05-28T04:50:40;9.95;;;4.15;;
64938;SDS011;51453;47.738;7.420;2023-05-28T04:53:06;9.30;;;4.18;;
64938;SDS011;51453;47.738;7.420;2023-05-28T04:55:32;11.40;;;4.88;;
64938;SDS011;51453;47.738;7.420;2023-05-28T04:57:58;8.43;;;4.40;;
64938;SDS011;51453;47.738;7.420;2023-05-28T05:00:23;10.55;;;4.60;;
64938;SDS011;51453;47.738;7.420;2023-05-28T05:02:51;10.35;;;4.20;;
64938;SDS011;51453;47.738;7.420;2023-05-28T05:05:18;14.00;;;5.07;;
64938;SDS011;51453;47.738;7.420;2023-05-28T05:07:44;11.50;;;5.57;;
64938;SDS011;51453;47.738;7.420;2023-05-28T05:10:10;9.95;;;4.53;;
64938;SDS011;51453;47.738;7.420;2023-05-28T05:12:36;9.02;;;5.05;;
64938;SDS011;51453;47.738;7.420;2023-05-28T05:15:03;16.65;;;5.90;;
64938;SDS011;51453;47.738;7.420;2023-05-28T05:17:31;11.65;;;5.13;;
64938;SDS011;51453;47.738;7.420;2023-05-28T05:19:57;10.88;;;5.20;;
64938;SDS011;51453;47.738;7.420;2023-05-28T05:22:23;13.90;;;6.20;;
64938;SDS011;51453;47.738;7.420;2023-05-28T05:24:49;13.90;;;6.07;;
64938;SDS011;51453;47.738;7.420;2023-05-28T05:27:15;13.18;;;5.85;;
64938;SDS011;51453;47.738;7.420;2023-05-28T05:29:41;13.15;;;5.88;;
64938;SDS011;51453;47.738;7.420;2023-05-28T05:32:07;9.85;;;5.40;;
64938;SDS011;51453;47.738;7.420;2023-05-28T05:34:34;9.55;;;4.93;;
64938;SDS011;51453;47.738;7.420;2023-05-28T05:37:00;13.20;;;5.97;;
64938;SDS011;51453;47.738;7.420;2023-05-28T05:39:26;11.93;;;5.47;;
64938;SDS011;51453;47.738;7.420;2023-05-28T05:41:52;12.18;;;5.57;;
64938;SDS011;51453;47.738;7.420;2023-05-28T05:44:18;12.82;;;4.95;;
64938;SDS011;51453;47.738;7.420;2023-05-28T05:46:43;12.13;;;5.32;;
64938;SDS011;51453;47.738;7.420;2023-05-28T05:49:09;10.68;;;5.20;;
64938;SDS011;51453;47.738;7.420;2023-05-28T05:51:35;12.23;;;5.68;;
64938;SDS011;51453;47.738;7.420;2023-05-28T05:54:04;11.63;;;4.78;;
64938;SDS011;51453;47.738;7.420;2023-05-28T05:56:29;9.65;;;4.40;;
64938;SDS011;51453;47.738;7.420;2023-05-28T05:58:57;9.73;;;4.88;;
64938;SDS011;51453;47.738;7.420;2023-05-28T06:01:23;12.32;;;5.13;;
64938;SDS011;51453;47.738;7.420;2023-05-28T06:03:48;8.82;;;4.78;;
64938;SDS011;51453;47.738;7.420;2023-05-28T06:06:14;10.32;;;5.03;;
64938;SDS011;51453;47.738;7.420;2023-05-28T06:08:40;15.70;;;5.10;;
64938;SDS011;51453;47.738;7.420;2023-05-28T06:11:06;10.68;;;5.25;;
64938;SDS011;51453;47.738;7.420;2023-05-28T06:13:32;10.15;;;4.97;;
64938;SDS011;51453;47.738;7.420;2023-05-28T06:16:00;8.57;;;4.82;;
64938;SDS011;51453;47.738;7.420;2023-05-28T06:18:26;11.90;;;5.03;;
64938;SDS011;51453;47.738;7.420;2023-05-28T06:20:52;13.23;;;6.18;;
64938;SDS011;51453;47.738;7.420;2023-05-28T06:23:18;12.30;;;5.10;;
64938;SDS011;51453;47.738;7.420;2023-05-28T06:25:43;10.35;;;5.07;;
64938;SDS011;51453;47.738;7.420;2023-05-28T06:28:09;14.02;;;5.65;;
64938;SDS011;51453;47.738;7.420;2023-05-28T06:30:35;11.98;;;5.10;;
64938;SDS011;51453;47.738;7.420;2023-05-28T06:33:01;12.70;;;5.82;;
64938;SDS011;51453;47.738;7.420;2023-05-28T06:35:27;10.63;;;5.40;;
64938;SDS011;51453;47.738;7.420;2023-05-28T06:37:53;11.63;;;5.75;;
64938;SDS011;51453;47.738;7.420;2023-05-28T06:40:18;11.65;;;5.55;;
64938;SDS011;51453;47.738;7.420;2023-05-28T06:42:44;11.57;;;5.53;;
64938;SDS011;51453;47.738;7.420;2023-05-28T06:45:10;19.23;;;5.65;;
64938;SDS011;51453;47.738;7.420;2023-05-28T06:47:36;14.50;;;5.15;;
64938;SDS011;51453;47.738;7.420;2023-05-28T06:50:02;11.98;;;5.60;;
64938;SDS011;51453;47.738;7.420;2023-05-28T06:52:28;9.93;;;5.00;;
64938;SDS011;51453;47.738;7.420;2023-05-28T06:54:54;10.40;;;4.82;;
64938;SDS011;51453;47.738;7.420;2023-05-28T06:57:20;9.80;;;4.90;;
64938;SDS011;51453;47.738;7.420;2023-05-28T06:59:46;9.52;;;4.65;;
64938;SDS011;51453;47.738;7.420;2023-05-28T07:02:11;10.68;;;5.10;;
64938;SDS011;51453;47.738;7.420;2023-05-28T07:04:37;11.40;;;4.80;;
64938;SDS011;51453;47.738;7.420;2023-05-28T07:07:03;15.45;;;5.65;;
64938;SDS011;51453;47.738;7.420;2023-05-28T07:09:29;11.75;;;5.05;;
64938;SDS011;51453;47.738;7.420;2023-05-28T07:11:55;11.35;;;5.30;;
64938;SDS011;51453;47.738;7.420;2023-05-28T07:14:21;9.32;;;4.80;;
64938;SDS011;51453;47.738;7.420;2023-05-28T07:16:47;9.50;;;4.93;;
64938;SDS011;51453;47.738;7.420;2023-05-28T07:19:13;9.75;;;4.72;;
64938;SDS011;51453;47.738;7.420;2023-05-28T07:21:39;11.15;;;4.60;;
64938;SDS011;51453;47.738;7.420;2023-05-28T07:24:05;12.75;;;5.20;;
64938;SDS011;51453;47.738;7.420;2023-05-28T07:26:31;12.20;;;5.15;;
64938;SDS011;51453;47.738;7.420;2023-05-28T07:28:57;11.43;;;4.90;;
64938;SDS011;51453;47.738;7.420;2023-05-28T07:31:24;13.43;;;5.50;;
64938;SDS011;51453;47.738;7.420;2023-05-28T07:33:50;12.57;;;5.38;;
64938;SDS011;51453;47.738;7.420;2023-05-28T07:36:15;14.07;;;5.65;;
64938;SDS011;51453;47.738;7.420;2023-05-28T07:38:42;12.15;;;5.75;;
64938;SDS011;51453;47.738;7.420;2023-05-28T07:41:08;13.52;;;5.72;;
64938;SDS011;51453;47.738;7.420;2023-05-28T07:43:33;12.15;;;5.30;;
64938;SDS011;51453;47.738;7.420;2023-05-28T07:45:59;10.18;;;5.10;;
64938;SDS011;51453;47.738;7.420;2023-05-28T07:48:25;11.15;;;5.47;;
64938;SDS011;51453;47.738;7.420;2023-05-28T07:50:50;10.23;;;5.18;;
64938;SDS011;51453;47.738;7.420;2023-05-28T07:53:16;13.57;;;4.97;;
64938;SDS011;51453;47.738;7.420;2023-05-28T07:55:43;12.68;;;6.20;;
64938;SDS011;51453;47.738;7.420;2023-05-28T07:58:09;9.48;;;5.05;;
64938;SDS011;51453;47.738;7.420;2023-05-28T08:00:36;14.63;;;5.65;;
64938;SDS011;51453;47.738;7.420;2023-05-28T08:03:03;13.55;;;5.68;;
64938;SDS011;51453;47.738;7.420;2023-05-28T08:05:28;9.50;;;5.15;;
64938;SDS011;51453;47.738;7.420;2023-05-28T08:07:54;10.68;;;4.85;;
64938;SDS011;51453;47.738;7.420;2023-05-28T08:10:20;10.45;;;4.85;;
64938;SDS011;51453;47.738;7.420;2023-05-28T08:12:45;11.05;;;5.03;;
64938;SDS011;51453;47.738;7.420;2023-05-28T08:15:11;11.30;;;4.18;;
64938;SDS011;51453;47.738;7.420;2023-05-28T08:17:37;9.95;;;4.18;;
64938;SDS011;51453;47.738;7.420;2023-05-28T08:20:03;12.90;;;4.82;;
64938;SDS011;51453;47.738;7.420;2023-05-28T08:22:29;14.30;;;5.20;;
64938;SDS011;51453;47.738;7.420;2023-05-28T08:24:55;12.93;;;4.95;;
64938;SDS011;51453;47.738;7.420;2023-05-28T08:27:20;10.45;;;4.40;;
64938;SDS011;51453;47.738;7.420;2023-05-28T08:29:46;13.20;;;4.80;;
64938;SDS011;51453;47.738;7.420;2023-05-28T08:32:12;10.25;;;4.32;;
64938;SDS011;51453;47.738;7.420;2023-05-28T08:34:38;12.00;;;4.55;;
64938;SDS011;51453;47.738;7.420;2023-05-28T08:37:04;10.43;;;4.65;;
64938;SDS011;51453;47.738;7.420;2023-05-28T08:39:31;10.57;;;4.18;;
64938;SDS011;51453;47.738;7.420;2023-05-28T08:41:57;11.05;;;4.63;;
64938;SDS011;51453;47.738;7.420;2023-05-28T08:44:23;9.98;;;4.32;;
64938;SDS011;51453;47.738;7.420;2023-05-28T08:46:48;9.65;;;4.65;;
64938;SDS011;51453;47.738;7.420;2023-05-28T08:49:17;7.88;;;4.05;;
64938;SDS011;51453;47.738;7.420;2023-05-28T08:51:43;9.93;;;4.40;;
64938;SDS011;51453;47.738;7.420;2023-05-28T08:54:14;17.10;;;4.53;;
64938;SDS011;51453;47.738;7.420;2023-05-28T08:56:40;10.02;;;4.03;;
64938;SDS011;51453;47.738;7.420;2023-05-28T08:59:07;10.52;;;4.20;;
64938;SDS011;51453;47.738;7.420;2023-05-28T09:01:35;10.80;;;4.20;;
64938;SDS011;51453;47.738;7.420;2023-05-28T09:04:03;7.22;;;4.13;;
64938;SDS011;51453;47.738;7.420;2023-05-28T09:06:31;10.15;;;4.00;;
64938;SDS011;51453;47.738;7.420;2023-05-28T09:09:01;9.25;;;3.80;;
64938;SDS011;51453;47.738;7.420;2023-05-28T09:11:27;12.05;;;4.25;;
64938;SDS011;51453;47.738;7.420;2023-05-28T09:13:53;12.57;;;4.13;;
64938;SDS011;51453;47.738;7.420;2023-05-28T09:16:19;10.05;;;4.07;;
64938;SDS011;51453;47.738;7.420;2023-05-28T09:19:07;7.40;;;4.00;;
64938;SDS011;51453;47.738;7.420;2023-05-28T09:21:32;10.45;;;4.30;;
64938;SDS011;51453;47.738;7.420;2023-05-28T09:23:59;13.90;;;4.32;;
64938;SDS011;51453;47.738;7.420;2023-05-28T09:26:32;10.40;;;4.45;;
64938;SDS011;51453;47.738;7.420;2023-05-28T09:28:58;7.60;;;3.75;;
64938;SDS011;51453;47.738;7.420;2023-05-28T09:31:28;8.73;;;4.20;;
64938;SDS011;51453;47.738;7.420;2023-05-28T09:33:58;8.80;;;3.80;;
64938;SDS011;51453;47.738;7.420;2023-05-28T09:36:28;6.97;;;4.00;;
64938;SDS011;51453;47.738;7.420;2023-05-28T09:38:57;13.50;;;4.20;;
64938;SDS011;51453;47.738;7.420;2023-05-28T09:41:24;10.98;;;3.88;;
64938;SDS011;51453;47.738;7.420;2023-05-28T09:43:56;13.43;;;3.95;;
64938;SDS011;51453;47.738;7.420;2023-05-28T09:46:31;8.82;;;4.68;;
64938;SDS011;51453;47.738;7.420;2023-05-28T09:48:58;9.30;;;4.25;;
64938;SDS011;51453;47.738;7.420;2023-05-28T09:51:25;11.00;;;4.05;;
64938;SDS011;51453;47.738;7.420;2023-05-28T09:54:00;11.38;;;3.60;;
64938;SDS011;51453;47.738;7.420;2023-05-28T09:56:31;9.30;;;4.20;;
64938;SDS011;51453;47.738;7.420;2023-05-28T09:58:58;11.73;;;4.93;;
64938;SDS011;51453;47.738;7.420;2023-05-28T10:01:27;6.78;;;3.50;;
64938;SDS011;51453;47.738;7.420;2023-05-28T10:04:09;8.35;;;4.00;;
64938;SDS011;51453;47.738;7.420;2023-05-28T10:06:39;9.52;;;4.47;;
64938;SDS011;51453;47.738;7.420;2023-05-28T10:09:07;8.73;;;3.97;;
64938;SDS011;51453;47.738;7.420;2023-05-28T10:11:59;9.45;;;3.58;;
64938;SDS011;51453;47.738;7.420;2023-05-28T10:14:39;11.40;;;4.20;;
64938;SDS011;51453;47.738;7.420;2023-05-28T10:17:05;7.47;;;3.75;;
64938;SDS011;51453;47.738;7.420;2023-05-28T10:19:33;8.80;;;4.18;;
64938;SDS011;51453;47.738;7.420;2023-05-28T10:22:00;9.00;;;3.53;;
64938;SDS011;51453;47.738;7.420;2023-05-28T10:24:26;11.13;;;4.30;;
64938;SDS011;51453;47.738;7.420;2023-05-28T10:26:53;6.38;;;3.85;;
64938;SDS011;51453;47.738;7.420;2023-05-28T10:29:19;7.03;;;3.70;;
64938;SDS011;51453;47.738;7.420;2023-05-28T10:31:51;7.00;;;3.40;;
64938;SDS011;51453;47.738;7.420;2023-05-28T10:34:28;7.63;;;4.07;;
64938;SDS011;51453;47.738;7.420;2023-05-28T10:36:56;8.02;;;3.80;;
64938;SDS011;51453;47.738;7.420;2023-05-28T10:39:21;9.55;;;3.90;;
64938;SDS011;51453;47.738;7.420;2023-05-28T10:41:47;7.28;;;3.88;;
64938;SDS011;51453;47.738;7.420;2023-05-28T10:44:14;7.22;;;3.63;;
64938;SDS011;51453;47.738;7.420;2023-05-28T10:46:40;7.97;;;3.45;;
64938;SDS011;51453;47.738;7.420;2023-05-28T10:49:08;8.07;;;3.97;;
64938;SDS011;51453;47.738;7.420;2023-05-28T10:51:57;9.63;;;3.70;;
64938;SDS011;51453;47.738;7.420;2023-05-28T10:57:05;8.43;;;3.97;;
64938;SDS011;51453;47.738;7.420;2023-05-28T11:00:05;10.52;;;4.05;;
64938;SDS011;51453;47.738;7.420;2023-05-28T11:02:26;7.57;;;3.78;;
64938;SDS011;51453;47.738;7.420;2023-05-28T11:04:58;7.72;;;3.83;;
64938;SDS011;51453;47.738;7.420;2023-05-28T11:07:29;10.80;;;4.32;;
64938;SDS011;51453;47.738;7.420;2023-05-28T11:10:02;10.15;;;4.03;;
64938;SDS011;51453;47.738;7.420;2023-05-28T11:14:59;9.93;;;4.32;;
64938;SDS011;51453;47.738;7.420;2023-05-28T11:17:25;11.55;;;4.18;;
64938;SDS011;51453;47.738;7.420;2023-05-28T11:19:51;9.13;;;3.60;;
64938;SDS011;51453;47.738;7.420;2023-05-28T11:22:18;7.68;;;3.72;;
64938;SDS011;51453;47.738;7.420;2023-05-28T11:25:04;9.27;;;3.65;;
64938;SDS011;51453;47.738;7.420;2023-05-28T11:27:32;10.27;;;3.95;;
64938;SDS011;51453;47.738;7.420;2023-05-28T11:30:01;7.93;;;3.95;;
64938;SDS011;51453;47.738;7.420;2023-05-28T11:32:32;7.35;;;3.70;;
64938;SDS011;51453;47.738;7.420;2023-05-28T11:34:58;9.85;;;4.00;;
64938;SDS011;51453;47.738;7.420;2023-05-28T11:37:26;9.60;;;3.88;;
64938;SDS011;51453;47.738;7.420;2023-05-28T11:39:58;8.13;;;4.13;;
64938;SDS011;51453;47.738;7.420;2023-05-28T11:42:25;8.35;;;3.92;;
64938;SDS011;51453;47.738;7.420;2023-05-28T11:44:52;7.78;;;3.92;;
64938;SDS011;51453;47.738;7.420;2023-05-28T11:47:18;8.60;;;4.53;;
64938;SDS011;51453;47.738;7.420;2023-05-28T11:49:44;7.57;;;3.83;;
64938;SDS011;51453;47.738;7.420;2023-05-28T11:52:14;9.32;;;4.20;;
64938;SDS011;51453;47.738;7.420;2023-05-28T11:54:41;7.28;;;3.70;;
64938;SDS011;51453;47.738;7.420;2023-05-28T11:57:08;11.45;;;4.28;;
64938;SDS011;51453;47.738;7.420;2023-05-28T11:59:35;9.25;;;3.70;;
64938;SDS011;51453;47.738;7.420;2023-05-28T12:02:13;8.38;;;3.90;;
64938;SDS011;51453;47.738;7.420;2023-05-28T12:04:52;10.95;;;3.95;;
64938;SDS011;51453;47.738;7.420;2023-05-28T12:07:18;10.20;;;3.80;;
64938;SDS011;51453;47.738;7.420;2023-05-28T12:09:44;9.15;;;3.78;;
64938;SDS011;51453;47.738;7.420;2023-05-28T12:12:10;8.20;;;3.78;;
64938;SDS011;51453;47.738;7.420;2023-05-28T12:14:36;9.05;;;4.00;;
64938;SDS011;51453;47.738;7.420;2023-05-28T12:17:06;7.15;;;3.58;;
64938;SDS011;51453;47.738;7.420;2023-05-28T12:19:38;8.32;;;3.67;;
64938;SDS011;51453;47.738;7.420;2023-05-28T12:22:05;6.45;;;3.72;;
64938;SDS011;51453;47.738;7.420;2023-05-28T12:24:47;18.80;;;3.90;;
64938;SDS011;51453;47.738;7.420;2023-05-28T12:27:14;7.90;;;3.97;;
64938;SDS011;51453;47.738;7.420;2023-05-28T12:29:40;8.25;;;3.42;;
64938;SDS011;51453;47.738;7.420;2023-05-28T12:32:06;7.53;;;3.78;;
64938;SDS011;51453;47.738;7.420;2023-05-28T12:34:31;8.13;;;3.60;;
64938;SDS011;51453;47.738;7.420;2023-05-28T12:36:57;8.27;;;3.78;;
64938;SDS011;51453;47.738;7.420;2023-05-28T12:39:23;6.93;;;3.25;;
64938;SDS011;51453;47.738;7.420;2023-05-28T12:41:48;7.25;;;3.47;;
64938;SDS011;51453;47.738;7.420;2023-05-28T12:44:14;6.78;;;3.70;;
64938;SDS011;51453;47.738;7.420;2023-05-28T12:46:40;7.43;;;3.50;;
64938;SDS011;51453;47.738;7.420;2023-05-28T12:49:06;7.25;;;3.60;;
64938;SDS011;51453;47.738;7.420;2023-05-28T12:51:32;8.75;;;3.90;;
64938;SDS011;51453;47.738;7.420;2023-05-28T12:53:58;7.68;;;3.80;;
64938;SDS011;51453;47.738;7.420;2023-05-28T12:56:25;5.85;;;3.28;;
64938;SDS011;51453;47.738;7.420;2023-05-28T12:58:51;8.93;;;5.13;;
64938;SDS011;51453;47.738;7.420;2023-05-28T13:01:17;11.85;;;6.47;;
64938;SDS011;51453;47.738;7.420;2023-05-28T13:03:43;7.78;;;3.80;;
64938;SDS011;51453;47.738;7.420;2023-05-28T13:06:08;8.93;;;4.10;;
64938;SDS011;51453;47.738;7.420;2023-05-28T13:08:35;7.15;;;3.33;;
64938;SDS011;51453;47.738;7.420;2023-05-28T13:11:01;8.85;;;3.75;;
64938;SDS011;51453;47.738;7.420;2023-05-28T13:13:27;8.18;;;3.50;;
64938;SDS011;51453;47.738;7.420;2023-05-28T13:15:53;6.38;;;3.63;;
64938;SDS011;51453;47.738;7.420;2023-05-28T13:18:19;7.38;;;3.83;;
64938;SDS011;51453;47.738;7.420;2023-05-28T13:20:44;7.72;;;3.13;;
64938;SDS011;51453;47.738;7.420;2023-05-28T13:23:10;6.65;;;3.55;;
64938;SDS011;51453;47.738;7.420;2023-05-28T13:25:36;6.40;;;3.47;;
64938;SDS011;51453;47.738;7.420;2023-05-28T13:28:02;8.65;;;3.47;;
64938;SDS011;51453;47.738;7.420;2023-05-28T13:30:28;5.85;;;3.33;;
64938;SDS011;51453;47.738;7.420;2023-05-28T13:32:54;4.93;;;3.50;;
64938;SDS011;51453;47.738;7.420;2023-05-28T13:35:20;12.18;;;3.65;;
64938;SDS011;51453;47.738;7.420;2023-05-28T13:37:49;7.32;;;3.28;;
64938;SDS011;51453;47.738;7.420;2023-05-28T13:40:15;7.00;;;3.70;;
64938;SDS011;51453;47.738;7.420;2023-05-28T13:42:41;7.68;;;3.90;;
64938;SDS011;51453;47.738;7.420;2023-05-28T13:45:08;6.28;;;3.60;;
64938;SDS011;51453;47.738;7.420;2023-05-28T13:47:37;6.50;;;3.53;;
64938;SDS011;51453;47.738;7.420;2023-05-28T13:50:03;6.55;;;3.40;;
64938;SDS011;51453;47.738;7.420;2023-05-28T13:52:29;8.98;;;3.75;;
64938;SDS011;51453;47.738;7.420;2023-05-28T13:54:55;8.48;;;3.47;;
64938;SDS011;51453;47.738;7.420;2023-05-28T13:57:20;7.63;;;3.72;;
64938;SDS011;51453;47.738;7.420;2023-05-28T13:59:46;9.05;;;3.70;;
64938;SDS011;51453;47.738;7.420;2023-05-28T14:02:12;9.05;;;3.50;;
64938;SDS011;51453;47.738;7.420;2023-05-28T14:04:38;6.95;;;3.30;;
64938;SDS011;51453;47.738;7.420;2023-05-28T14:07:03;7.38;;;3.20;;
64938;SDS011;51453;47.738;7.420;2023-05-28T14:09:29;5.28;;;3.00;;
64938;SDS011;51453;47.738;7.420;2023-05-28T14:11:55;6.93;;;3.63;;
64938;SDS011;51453;47.738;7.420;2023-05-28T14:14:21;7.20;;;3.35;;
64938;SDS011;51453;47.738;7.420;2023-05-28T14:16:47;9.75;;;3.38;;
64938;SDS011;51453;47.738;7.420;2023-05-28T14:19:13;6.60;;;3.10;;
64938;SDS011;51453;47.738;7.420;2023-05-28T14:21:38;7.32;;;3.50;;
64938;SDS011;51453;47.738;7.420;2023-05-28T14:24:06;9.15;;;3.33;;
64938;SDS011;51453;47.738;7.420;2023-05-28T14:26:32;6.65;;;3.28;;
64938;SDS011;51453;47.738;7.420;2023-05-28T14:28:58;7.78;;;3.92;;
64938;SDS011;51453;47.738;7.420;2023-05-28T14:31:23;7.95;;;3.05;;
64938;SDS011;51453;47.738;7.420;2023-05-28T14:33:49;11.23;;;3.67;;
64938;SDS011;51453;47.738;7.420;2023-05-28T14:36:15;5.03;;;3.10;;
64938;SDS011;51453;47.738;7.420;2023-05-28T14:38:40;5.30;;;3.15;;
64938;SDS011;51453;47.738;7.420;2023-05-28T14:41:06;8.00;;;3.42;;
64938;SDS011;51453;47.738;7.420;2023-05-28T14:43:32;9.52;;;3.80;;
64938;SDS011;51453;47.738;7.420;2023-05-28T14:45:57;9.05;;;3.58;;